Time;durP1;ratioP1;P1;durP2;ratioP2;P2;SDS_P1;SDS_P2;PMS_P1;PMS_P2;Temp;Humidity;BMP_temperature;BMP_pressure;BME280_temperature;BME280_humidity;BME280_pressure;Samples;Min_cycle;Max_cycle;Signal;HPM_P1;HPM_P2
2021/04/20 00:01:36;;;;;;;50.93;25.80;;;3.00;99.90;;;;;;5023401;28;20229;-74
2021/04/20 00:04:04;;;;;;;47.23;25.67;;;3.00;99.90;;;;;;5019491;28;20538;-74
2021/04/20 00:06:30;;;;;;;46.53;24.20;;;3.00;99.90;;;;;;5021915;28;20401;-72
2021/04/20 00:08:55;;;;;;;43.70;26.80;;;3.00;99.90;;;;;;5020703;28;20785;-73
2021/04/20 00:11:21;;;;;;;46.43;25.87;;;3.00;99.90;;;;;;5020806;28;20257;-73
2021/04/20 00:13:46;;;;;;;41.20;23.87;;;3.00;99.90;;;;;;5018674;28;20266;-75
2021/04/20 00:16:12;;;;;;;46.23;25.27;;;2.90;99.90;;;;;;5020677;28;20804;-73
2021/04/20 00:18:37;;;;;;;46.27;25.47;;;2.90;99.90;;;;;;5016327;28;20249;-73
2021/04/20 00:21:03;;;;;;;44.70;25.17;;;2.80;99.90;;;;;;5023080;28;20199;-74
2021/04/20 00:23:28;;;;;;;46.10;26.60;;;2.80;99.90;;;;;;5021897;28;20184;-72
2021/04/20 00:25:54;;;;;;;45.93;25.10;;;2.80;99.90;;;;;;5019795;28;20770;-73
2021/04/20 00:28:24;;;;;;;46.97;25.50;;;2.80;99.90;;;;;;5016986;28;20286;-73
2021/04/20 00:30:50;;;;;;;51.53;24.33;;;2.80;99.90;;;;;;5022531;28;20221;-72
2021/04/20 00:33:17;;;;;;;57.33;26.50;;;2.80;99.90;;;;;;5014933;28;20834;-73
2021/04/20 00:35:42;;;;;;;42.70;24.53;;;2.80;99.90;;;;;;5022262;28;20841;-73
2021/04/20 00:38:08;;;;;;;48.33;26.47;;;2.70;99.90;;;;;;5020493;28;20437;-74
2021/04/20 00:40:33;;;;;;;47.20;26.50;;;2.70;99.90;;;;;;5019558;28;20184;-72
2021/04/20 00:42:59;;;;;;;41.83;22.70;;;2.70;99.90;;;;;;5020561;28;20187;-73
2021/04/20 00:45:27;;;;;;;40.67;22.90;;;2.70;99.90;;;;;;5022546;28;20220;-72
2021/04/20 00:47:53;;;;;;;41.93;24.77;;;2.70;99.90;;;;;;5018925;28;20213;-72
2021/04/20 00:50:23;;;;;;;45.90;25.27;;;2.70;99.90;;;;;;5020839;28;20462;-73
2021/04/20 00:52:50;;;;;;;41.20;23.83;;;2.60;99.90;;;;;;5018997;28;20683;-73
2021/04/20 00:55:15;;;;;;;49.60;25.17;;;2.60;99.90;;;;;;5020348;28;20423;-73
2021/04/20 00:57:41;;;;;;;50.50;25.53;;;2.50;99.90;;;;;;5021908;28;20957;-75
2021/04/20 01:00:24;;;;;;;45.50;25.30;;;2.50;99.90;;;;;;5020922;28;20219;-73
2021/04/20 01:02:50;;;;;;;41.97;24.67;;;2.50;99.90;;;;;;5018827;28;20187;-75
2021/04/20 01:05:19;;;;;;;49.37;25.50;;;2.50;99.90;;;;;;5018455;28;20794;-74
2021/04/20 01:07:45;;;;;;;46.00;25.30;;;2.40;99.90;;;;;;5017219;28;20825;-74
2021/04/20 01:10:12;;;;;;;47.97;24.93;;;2.40;99.90;;;;;;5015883;28;20548;-72
2021/04/20 01:12:39;;;;;;;52.67;30.87;;;2.40;99.90;;;;;;5019880;28;20410;-72
2021/04/20 01:15:07;;;;;;;54.47;25.73;;;2.40;99.90;;;;;;5022028;28;20963;-72
2021/04/20 01:17:33;;;;;;;52.90;25.97;;;2.40;99.90;;;;;;5021485;28;20461;-73
2021/04/20 01:19:59;;;;;;;45.83;25.80;;;2.40;99.90;;;;;;5021782;28;21002;-74
2021/04/20 01:22:29;;;;;;;48.30;26.47;;;2.30;99.90;;;;;;5018066;28;20176;-73
2021/04/20 01:24:55;;;;;;;56.13;24.97;;;2.30;99.90;;;;;;5021563;28;20434;-73
2021/04/20 01:27:23;;;;;;;46.87;24.40;;;2.30;99.90;;;;;;5022046;28;20444;-74
2021/04/20 01:29:53;;;;;;;62.87;26.67;;;2.30;99.90;;;;;;5016300;28;20461;-73
2021/04/20 01:32:18;;;;;;;51.27;28.77;;;2.30;99.90;;;;;;5021812;28;20421;-73
2021/04/20 01:34:44;;;;;;;53.83;28.63;;;2.30;99.90;;;;;;5019808;28;20439;-73
2021/04/20 01:37:09;;;;;;;56.87;28.63;;;2.30;99.90;;;;;;5018988;28;20205;-74
2021/04/20 01:39:35;;;;;;;57.83;28.37;;;2.30;99.90;;;;;;5019288;28;20654;-72
2021/04/20 01:42:01;;;;;;;54.30;30.37;;;2.30;99.90;;;;;;5020334;28;20189;-74
2021/04/20 01:44:26;;;;;;;55.63;29.63;;;2.30;99.90;;;;;;5017579;28;20175;-73
2021/04/20 01:46:52;;;;;;;55.80;29.63;;;2.30;99.90;;;;;;5021804;28;20185;-76
2021/04/20 01:49:17;;;;;;;52.20;28.43;;;2.30;99.90;;;;;;5015465;28;20277;-73
2021/04/20 01:51:43;;;;;;;57.17;28.37;;;2.30;99.90;;;;;;5020614;28;20205;-73
2021/04/20 01:54:09;;;;;;;45.70;26.80;;;2.40;99.90;;;;;;5022997;28;20221;-73
2021/04/20 01:56:34;;;;;;;47.77;27.23;;;2.30;99.90;;;;;;5022596;28;20682;-73
2021/04/20 01:59:01;;;;;;;53.80;29.47;;;2.30;99.90;;;;;;5017197;28;20197;-73
2021/04/20 02:01:28;;;;;;;49.20;28.23;;;2.30;99.90;;;;;;5019207;28;20254;-73
2021/04/20 02:03:54;;;;;;;57.63;29.93;;;2.30;99.90;;;;;;5016788;28;20405;-73
2021/04/20 02:06:23;;;;;;;50.93;27.83;;;2.30;99.90;;;;;;5020157;28;20408;-74
2021/04/20 02:08:49;;;;;;;57.37;31.23;;;2.30;99.90;;;;;;5021035;28;20791;-72
2021/04/20 02:11:17;;;;;;;59.80;29.73;;;2.40;99.90;;;;;;5019164;28;20838;-73
2021/04/20 02:13:43;;;;;;;65.43;30.37;;;2.40;99.90;;;;;;5017521;28;20744;-72
2021/04/20 02:16:10;;;;;;;55.90;28.43;;;2.40;99.90;;;;;;5018300;28;20404;-73
2021/04/20 02:18:40;;;;;;;66.20;29.17;;;2.40;99.90;;;;;;5016058;28;20427;-72
2021/04/20 02:21:06;;;;;;;102.53;34.23;;;2.50;99.90;;;;;;5021303;28;20405;-73
2021/04/20 02:23:32;;;;;;;121.00;35.30;;;2.50;99.90;;;;;;5018164;28;20400;-73
2021/04/20 02:26:10;;;;;;;116.87;36.73;;;2.40;99.90;;;;;;5020625;28;20412;-73
2021/04/20 02:28:36;;;;;;;123.13;32.77;;;2.40;99.90;;;;;;5021131;28;20452;-73
2021/04/20 02:31:05;;;;;;;133.30;35.10;;;2.40;99.90;;;;;;5013099;28;20479;-73
2021/04/20 02:33:31;;;;;;;184.37;37.67;;;2.40;99.90;;;;;;5018880;28;20655;-73
2021/04/20 02:35:58;;;;;;;182.40;37.33;;;2.40;99.90;;;;;;5016312;28;20392;-74
2021/04/20 02:38:25;;;;;;;140.77;35.57;;;2.40;99.90;;;;;;5018140;28;20574;-73
2021/04/20 02:40:59;;;;;;;109.27;35.90;;;2.40;99.90;;;;;;5018857;28;20412;-72
2021/04/20 02:43:25;;;;;;;134.17;35.37;;;2.40;99.90;;;;;;5018309;28;20414;-73
2021/04/20 02:45:53;;;;;;;86.57;34.97;;;2.40;99.90;;;;;;5021547;28;20437;-72
2021/04/20 02:48:19;;;;;;;120.00;34.97;;;2.40;99.90;;;;;;5015616;28;20518;-73
2021/04/20 02:50:45;;;;;;;141.13;36.67;;;2.50;99.90;;;;;;5022172;28;20437;-73
2021/04/20 02:53:15;;;;;;;120.70;34.40;;;2.50;99.90;;;;;;5017472;28;20486;-73
2021/04/20 02:55:41;;;;;;;134.60;36.10;;;2.50;99.90;;;;;;5018782;28;20711;-73
2021/04/20 02:58:18;;;;;;;106.23;35.07;;;2.50;99.90;;;;;;5020405;28;21046;-73
2021/04/20 03:00:46;;;;;;;122.03;37.33;;;2.50;99.90;;;;;;5016064;28;20421;-72
2021/04/20 03:03:15;;;;;;;145.77;37.13;;;2.60;99.90;;;;;;5018551;28;20429;-73
2021/04/20 03:05:41;;;;;;;112.80;39.23;;;2.60;99.90;;;;;;5021710;28;20955;-73
2021/04/20 03:08:07;;;;;;;87.77;33.97;;;2.60;99.90;;;;;;5015898;28;20821;-73
2021/04/20 03:10:37;;;;;;;97.77;35.13;;;2.60;99.90;;;;;;5036040;28;20936;-73
2021/04/20 03:13:03;;;;;;;166.83;36.60;;;2.70;99.90;;;;;;5019449;28;20420;-73
2021/04/20 03:15:30;;;;;;;115.60;34.50;;;2.70;99.90;;;;;;5020161;28;20400;-73
2021/04/20 03:17:55;;;;;;;94.03;34.83;;;2.70;99.90;;;;;;5015767;28;20923;-73
2021/04/20 03:20:21;;;;;;;106.07;34.93;;;2.70;99.90;;;;;;5020380;28;20595;-73
2021/04/20 03:22:49;;;;;;;142.73;35.40;;;2.80;99.90;;;;;;5024321;28;20217;-72
2021/04/20 03:25:14;;;;;;;138.17;36.67;;;2.80;99.90;;;;;;5014477;28;20427;-73
2021/04/20 03:27:45;;;;;;;145.77;36.50;;;2.80;99.90;;;;;;5021055;28;20468;-74
2021/04/20 03:30:13;;;;;;;182.13;38.40;;;2.80;99.90;;;;;;5017462;28;20190;-73
2021/04/20 03:32:49;;;;;;;133.13;37.07;;;2.90;99.90;;;;;;5021806;28;20420;-73
2021/04/20 03:35:23;;;;;;;269.97;41.37;;;2.90;99.90;;;;;;5018084;28;20496;-73
2021/04/20 03:37:58;;;;;;;138.83;40.03;;;2.90;99.90;;;;;;5020965;28;20448;-71
2021/04/20 03:40:26;;;;;;;154.00;37.60;;;2.90;99.90;;;;;;5021797;28;20975;-73
2021/04/20 03:42:57;;;;;;;250.27;39.60;;;2.90;99.90;;;;;;5021577;28;20465;-75
2021/04/20 03:45:27;;;;;;;152.67;34.83;;;2.90;99.90;;;;;;5019643;28;20425;-70
2021/04/20 03:48:16;;;;;;;175.17;37.07;;;2.90;99.90;;;;;;5017125;28;20454;-73
2021/04/20 03:50:52;;;;;;;205.97;38.23;;;2.90;99.90;;;;;;5022738;28;20473;-72
2021/04/20 03:53:19;;;;;;;210.10;38.27;;;2.90;99.90;;;;;;5021583;28;20429;-73
2021/04/20 03:55:50;;;;;;;178.60;35.90;;;2.80;99.90;;;;;;5022455;28;20422;-72
2021/04/20 03:58:18;;;;;;;172.23;36.80;;;2.80;99.90;;;;;;5020345;28;20464;-72
2021/04/20 04:00:49;;;;;;;171.17;36.70;;;2.70;99.90;;;;;;5013575;28;20433;-73
2021/04/20 04:03:15;;;;;;;218.20;38.93;;;2.70;99.90;;;;;;5008825;28;20927;-73
2021/04/20 04:05:42;;;;;;;119.73;34.93;;;2.70;99.90;;;;;;5021672;28;20477;-72
2021/04/20 04:08:08;;;;;;;124.80;37.40;;;2.60;99.90;;;;;;5020566;28;20821;-73
2021/04/20 04:10:36;;;;;;;92.60;32.40;;;2.60;99.90;;;;;;5023814;28;20584;-73
2021/04/20 04:13:05;;;;;;;123.53;34.00;;;2.60;99.90;;;;;;5020663;28;20432;-73
2021/04/20 04:15:32;;;;;;;89.83;30.00;;;2.60;99.90;;;;;;5022302;28;20958;-73
2021/04/20 04:18:00;;;;;;;97.77;33.23;;;2.60;99.90;;;;;;5014822;28;20443;-72
2021/04/20 04:20:26;;;;;;;72.53;30.97;;;2.60;99.90;;;;;;5020472;28;20426;-71
2021/04/20 04:23:14;;;;;;;102.73;30.43;;;2.50;99.90;;;;;;5017435;28;20432;-74
2021/04/20 04:25:47;;;;;;;182.80;35.60;;;2.60;99.90;;;;;;5021660;28;20195;-70
2021/04/20 04:28:14;;;;;;;77.30;32.53;;;2.60;99.90;;;;;;5016249;28;20544;-71
2021/04/20 04:30:40;;;;;;;83.93;31.40;;;2.60;99.90;;;;;;5025079;28;20470;-70
2021/04/20 04:33:06;;;;;;;113.03;31.77;;;2.50;99.90;;;;;;5019620;28;20463;-71
2021/04/20 04:35:35;;;;;;;155.43;35.00;;;2.50;99.90;;;;;;5021359;28;20920;-70
2021/04/20 04:38:01;;;;;;;65.60;30.67;;;2.50;99.90;;;;;;5023872;28;20972;-70
2021/04/20 04:40:27;;;;;;;128.30;33.60;;;2.50;99.90;;;;;;5019961;28;20431;-72
2021/04/20 04:42:53;;;;;;;49.77;27.40;;;2.50;99.90;;;;;;5023801;28;20855;-72
2021/04/20 04:45:20;;;;;;;53.57;29.07;;;2.50;99.90;;;;;;5020502;28;20431;-70
2021/04/20 04:47:45;;;;;;;49.23;28.70;;;2.50;99.90;;;;;;5023629;28;20203;-73
2021/04/20 04:50:12;;;;;;;51.40;28.53;;;2.50;99.90;;;;;;5019070;28;20544;-70
2021/04/20 04:52:40;;;;;;;53.63;31.20;;;2.50;99.90;;;;;;5022710;28;20415;-71
2021/04/20 04:55:06;;;;;;;57.40;29.70;;;2.60;99.90;;;;;;5017610;28;20770;-70
2021/04/20 04:57:34;;;;;;;55.63;30.40;;;2.60;99.90;;;;;;5022027;28;20440;-70
2021/04/20 05:00:04;;;;;;;54.83;30.53;;;2.70;99.90;;;;;;5017093;28;20410;-70
2021/04/20 05:02:30;;;;;;;56.90;28.30;;;2.70;99.90;;;;;;5020260;28;20393;-71
2021/04/20 05:04:56;;;;;;;58.33;30.30;;;2.70;99.90;;;;;;5021464;28;20435;-71
2021/04/20 05:07:25;;;;;;;53.77;27.90;;;2.70;99.90;;;;;;5020121;28;21079;-71
2021/04/20 05:09:51;;;;;;;50.53;26.50;;;2.80;99.90;;;;;;5024695;28;20399;-71
2021/04/20 05:12:20;;;;;;;77.27;28.47;;;2.90;99.90;;;;;;5015068;28;20473;-72
2021/04/20 05:14:47;;;;;;;67.93;27.33;;;2.90;99.90;;;;;;5017645;28;20425;-71
2021/04/20 05:17:13;;;;;;;104.70;33.10;;;3.00;99.90;;;;;;5018951;28;20448;-71
2021/04/20 05:19:40;;;;;;;109.00;30.07;;;3.00;99.90;;;;;;5019496;28;20450;-71
2021/04/20 05:22:06;;;;;;;107.53;29.77;;;3.10;99.90;;;;;;5021172;28;20449;-71
2021/04/20 05:24:32;;;;;;;168.83;32.83;;;3.10;99.90;;;;;;5015930;28;20488;-72
2021/04/20 05:26:58;;;;;;;207.33;34.37;;;3.10;99.90;;;;;;5015629;28;20525;-72
2021/04/20 05:29:23;;;;;;;179.80;31.73;;;3.20;99.90;;;;;;5022516;28;20724;-71
2021/04/20 05:31:50;;;;;;;141.23;33.30;;;3.20;99.90;;;;;;5018703;28;20473;-71
2021/04/20 05:34:19;;;;;;;151.33;34.63;;;3.20;99.90;;;;;;5023266;28;20183;-71
2021/04/20 05:36:47;;;;;;;138.90;30.87;;;3.30;99.90;;;;;;5015924;28;20405;-71
2021/04/20 05:39:13;;;;;;;138.53;33.97;;;3.40;99.90;;;;;;5019647;28;20478;-71
2021/04/20 05:41:40;;;;;;;134.30;30.83;;;3.40;99.90;;;;;;5020430;28;20507;-71
2021/04/20 05:44:08;;;;;;;116.50;31.90;;;3.50;99.90;;;;;;5021505;28;20423;-71
2021/04/20 05:46:39;;;;;;;175.70;35.10;;;3.60;99.90;;;;;;5019396;28;20539;-71
2021/04/20 05:49:05;;;;;;;186.93;35.63;;;3.60;99.90;;;;;;5020660;28;20515;-71
2021/04/20 05:51:32;;;;;;;127.63;33.83;;;3.70;99.90;;;;;;5021029;28;20688;-71
2021/04/20 05:53:58;;;;;;;119.23;33.77;;;3.70;99.90;;;;;;5020928;28;20429;-72
2021/04/20 05:56:24;;;;;;;129.40;34.97;;;3.70;99.90;;;;;;5016991;28;20499;-71
2021/04/20 05:58:52;;;;;;;154.90;32.50;;;3.70;99.90;;;;;;5011377;28;20210;-74
2021/04/20 06:01:18;;;;;;;106.87;34.63;;;3.90;99.90;;;;;;5021497;28;20408;-71
2021/04/20 06:03:45;;;;;;;108.10;35.03;;;4.00;99.90;;;;;;5014028;28;20423;-72
2021/04/20 06:06:15;;;;;;;112.50;35.00;;;4.10;99.90;;;;;;5012415;28;20961;-72
2021/04/20 06:08:41;;;;;;;230.87;36.53;;;4.20;99.90;;;;;;5016342;28;20448;-72
2021/04/20 06:11:08;;;;;;;413.13;47.60;;;4.30;99.90;;;;;;5020277;28;20498;-72
2021/04/20 06:13:34;;;;;;;209.03;37.83;;;4.50;99.90;;;;;;5020721;28;20413;-72
2021/04/20 06:16:00;;;;;;;90.00;33.03;;;4.70;99.90;;;;;;5016955;28;20425;-72
2021/04/20 06:18:27;;;;;;;116.40;33.53;;;4.90;99.90;;;;;;5016918;28;20761;-71
2021/04/20 06:20:58;;;;;;;114.70;32.97;;;5.10;99.90;;;;;;5038244;28;20446;-72
2021/04/20 06:23:24;;;;;;;87.70;33.30;;;5.30;99.90;;;;;;5014894;28;20774;-72
2021/04/20 06:25:56;;;;;;;70.53;31.37;;;5.60;99.90;;;;;;5022786;28;20562;-71
2021/04/20 06:28:22;;;;;;;111.77;33.87;;;5.80;99.90;;;;;;5021043;28;20459;-71
2021/04/20 06:30:47;;;;;;;90.27;29.93;;;5.90;99.90;;;;;;5018451;28;20476;-71
2021/04/20 06:33:14;;;;;;;89.17;32.63;;;6.10;99.90;;;;;;5014469;28;20596;-70
2021/04/20 06:35:40;;;;;;;71.30;29.80;;;6.20;99.90;;;;;;5009719;28;20182;-71
2021/04/20 06:38:06;;;;;;;68.00;31.33;;;6.50;99.90;;;;;;5013783;28;20475;-74
2021/04/20 06:40:35;;;;;;;48.63;28.40;;;6.50;99.90;;;;;;5010358;28;20445;-73
2021/04/20 06:43:03;;;;;;;55.53;30.33;;;6.90;99.90;;;;;;5008520;28;20940;-74
2021/04/20 06:45:32;;;;;;;56.00;28.43;;;7.50;99.90;;;;;;5010337;28;20429;-71
2021/04/20 06:48:03;;;;;;;43.80;27.93;;;8.00;99.90;;;;;;5012272;28;20460;-74
2021/04/20 06:50:32;;;;;;;42.63;28.53;;;8.40;99.90;;;;;;5016878;28;20464;-72
2021/04/20 06:53:04;;;;;;;34.97;25.27;;;8.80;99.90;;;;;;5011570;28;21438;-71
2021/04/20 06:55:41;;;;;;;34.00;23.90;;;9.10;99.90;;;;;;5020787;28;20480;-71
2021/04/20 06:58:08;;;;;;;34.47;25.33;;;9.50;99.90;;;;;;5021669;28;20420;-70
2021/04/20 07:00:49;;;;;;;37.50;25.20;;;9.90;99.90;;;;;;5019192;28;20481;-71
2021/04/20 07:03:39;;;;;;;36.27;24.37;;;10.30;99.90;;;;;;5016930;28;20434;-71
2021/04/20 07:06:27;;;;;;;37.10;24.93;;;10.40;99.90;;;;;;5019756;28;20436;-71
2021/04/20 07:08:59;;;;;;;36.97;25.87;;;10.60;99.90;;;;;;5015606;28;20463;-71
2021/04/20 07:11:28;;;;;;;37.50;26.70;;;11.30;99.90;;;;;;5021092;28;20468;-71
2021/04/20 07:13:58;;;;;;;38.17;29.20;;;11.40;99.90;;;;;;5021526;28;20445;-70
2021/04/20 07:16:32;;;;;;;30.47;25.07;;;11.40;99.90;;;;;;5020120;28;20433;-70
2021/04/20 07:19:29;;;;;;;41.20;26.00;;;11.70;99.90;;;;;;5016904;28;20441;-71
2021/04/20 07:22:37;;;;;;;35.33;24.97;;;12.00;99.90;;;;;;5021702;28;20440;-72
2021/04/20 07:25:20;;;;;;;35.33;25.80;;;12.40;99.90;;;;;;5025260;28;21016;-71
2021/04/20 07:27:58;;;;;;;36.77;25.60;;;12.80;99.90;;;;;;5015194;28;21029;-70
2021/04/20 07:30:46;;;;;;;33.93;25.20;;;13.40;99.90;;;;;;5020394;28;20462;-70
2021/04/20 07:33:49;;;;;;;38.73;24.87;;;13.50;99.90;;;;;;5024884;28;20426;-70
2021/04/20 07:37:00;;;;;;;36.70;23.83;;;13.60;99.90;;;;;;5019280;28;20499;-70
2021/04/20 07:39:37;;;;;;;34.70;24.33;;;13.60;99.90;;;;;;5007632;28;20461;-71
2021/04/20 07:42:18;;;;;;;36.80;25.10;;;13.40;99.90;;;;;;5016907;28;20429;-71
2021/04/20 07:45:11;;;;;;;32.50;22.73;;;13.70;99.90;;;;;;5021975;28;20445;-72
2021/04/20 07:47:43;;;;;;;32.37;21.20;;;14.00;99.90;;;;;;5021618;28;21373;-70
2021/04/20 07:50:15;;;;;;;30.57;23.07;;;13.80;99.90;;;;;;5017739;28;20444;-71
2021/04/20 07:52:49;;;;;;;28.63;21.03;;;13.90;99.90;;;;;;5021924;28;20832;-70
2021/04/20 07:55:24;;;;;;;37.63;24.70;;;14.20;99.90;;;;;;5020158;28;20429;-72
2021/04/20 07:58:01;;;;;;;32.50;24.37;;;14.50;99.90;;;;;;5019506;28;20456;-71
2021/04/20 08:00:36;;;;;;;30.63;24.00;;;14.40;99.90;;;;;;5021512;28;20544;-71
2021/04/20 08:03:12;;;;;;;41.33;25.50;;;14.80;99.90;;;;;;5022486;28;20439;-71
2021/04/20 08:05:58;;;;;;;38.20;23.13;;;14.80;99.90;;;;;;5011064;28;20435;-71
2021/04/20 08:08:44;;;;;;;31.50;23.87;;;15.10;99.90;;;;;;5012361;28;20448;-69
2021/04/20 08:11:24;;;;;;;34.57;25.63;;;15.20;99.90;;;;;;5031988;28;20452;-72
2021/04/20 08:13:52;;;;;;;37.93;27.10;;;14.70;99.90;;;;;;5016518;28;20508;-71
2021/04/20 08:16:33;;;;;;;41.20;25.03;;;14.60;99.90;;;;;;5016047;28;20488;-72
2021/04/20 08:19:05;;;;;;;38.47;26.17;;;14.60;99.90;;;;;;5019417;28;20452;-71
2021/04/20 08:21:32;;;;;;;34.53;25.30;;;14.50;99.90;;;;;;5022137;28;20586;-71
2021/04/20 08:23:59;;;;;;;35.73;25.53;;;14.80;99.90;;;;;;5019280;28;20476;-70
2021/04/20 08:26:35;;;;;;;36.40;25.00;;;15.20;99.90;;;;;;5024351;28;20453;-71
2021/04/20 08:29:08;;;;;;;36.67;25.00;;;15.60;99.90;;;;;;5020323;28;20448;-71
2021/04/20 08:31:36;;;;;;;35.50;23.40;;;15.60;99.90;;;;;;5019221;28;20465;-71
2021/04/20 08:34:24;;;;;;;37.00;24.07;;;15.80;99.90;;;;;;5019798;28;20456;-71
2021/04/20 08:37:06;;;;;;;31.17;22.03;;;16.30;99.90;;;;;;5022743;28;20830;-71
2021/04/20 08:40:21;;;;;;;34.83;24.63;;;16.30;99.90;;;;;;5015546;28;20425;-71
2021/04/20 08:43:30;;;;;;;32.37;23.10;;;16.80;99.90;;;;;;4994796;28;20448;-72
2021/04/20 08:46:14;;;;;;;39.03;24.60;;;17.20;99.90;;;;;;5017883;28;20425;-71
2021/04/20 08:48:39;;;;;;;29.47;21.60;;;17.60;99.90;;;;;;5020772;28;20522;-71
2021/04/20 08:51:19;;;;;;;27.23;20.77;;;17.80;99.90;;;;;;5010191;28;20461;-71
2021/04/20 08:54:08;;;;;;;32.87;23.07;;;17.80;99.90;;;;;;5013376;28;20181;-72
2021/04/20 08:56:43;;;;;;;33.50;21.50;;;17.70;99.90;;;;;;5019931;28;20425;-73
2021/04/20 08:59:20;;;;;;;32.40;22.00;;;17.70;99.90;;;;;;5014822;28;20448;-72
2021/04/20 09:02:08;;;;;;;28.43;20.83;;;17.80;99.90;;;;;;5018371;28;20451;-71
2021/04/20 09:04:45;;;;;;;27.40;20.80;;;18.10;99.90;;;;;;5016831;28;20441;-73
2021/04/20 09:07:53;;;;;;;28.77;20.23;;;18.50;99.90;;;;;;5019438;28;20432;-71
2021/04/20 09:10:26;;;;;;;21.50;17.67;;;18.80;99.90;;;;;;5025628;28;20444;-71
2021/04/20 09:12:59;;;;;;;24.47;16.43;;;19.30;99.90;;;;;;5021710;28;20433;-71
2021/04/20 09:15:28;;;;;;;28.20;19.63;;;19.50;99.90;;;;;;5015354;28;20520;-72
2021/04/20 09:18:02;;;;;;;25.47;19.87;;;19.00;99.90;;;;;;5014001;28;20480;-72
2021/04/20 09:20:44;;;;;;;26.53;18.53;;;18.70;99.90;;;;;;5016707;28;20499;-72
2021/04/20 09:23:24;;;;;;;26.77;21.67;;;18.70;99.90;;;;;;5020818;28;20458;-72
2021/04/20 09:26:02;;;;;;;25.97;21.23;;;19.30;99.90;;;;;;5011544;28;20437;-72
2021/04/20 09:28:37;;;;;;;26.10;20.50;;;19.30;99.90;;;;;;5018721;28;20487;-71
2021/04/20 09:31:12;;;;;;;27.13;19.93;;;19.60;99.90;;;;;;5020920;28;20545;-72
2021/04/20 09:33:46;;;;;;;21.90;17.70;;;19.80;99.90;;;;;;5018718;28;20424;-72
2021/04/20 09:36:12;;;;;;;22.37;19.70;;;20.00;99.90;;;;;;5015830;28;20471;-74
2021/04/20 09:38:45;;;;;;;23.03;18.73;;;20.30;99.90;;;;;;5018837;28;21080;-72
2021/04/20 09:41:12;;;;;;;17.77;15.20;;;20.50;99.90;;;;;;5014865;28;20484;-74
2021/04/20 09:43:57;;;;;;;19.70;17.10;;;20.60;99.90;;;;;;5016743;28;20433;-72
2021/04/20 09:46:28;;;;;;;17.77;14.37;;;20.60;99.90;;;;;;5014975;28;20430;-71
2021/04/20 09:49:05;;;;;;;23.10;19.63;;;20.30;99.90;;;;;;5014524;28;20464;-71
2021/04/20 09:51:37;;;;;;;22.90;18.50;;;20.30;99.90;;;;;;5021443;28;20590;-71
2021/04/20 09:54:28;;;;;;;26.13;20.13;;;20.10;99.90;;;;;;5017350;28;20981;-71
2021/04/20 09:56:56;;;;;;;20.90;17.03;;;20.30;99.90;;;;;;5004119;28;20444;-71
2021/04/20 09:59:45;;;;;;;20.73;16.90;;;20.50;99.90;;;;;;5019070;28;20540;-71
2021/04/20 10:02:38;;;;;;;20.93;16.93;;;20.60;99.90;;;;;;5008716;28;20432;-71
2021/04/20 10:05:14;;;;;;;17.70;14.50;;;20.60;99.90;;;;;;5018903;28;20521;-71
2021/04/20 10:08:11;;;;;;;23.33;17.83;;;20.60;99.90;;;;;;5018528;28;20520;-71
2021/04/20 10:10:53;;;;;;;22.07;17.27;;;20.50;99.90;;;;;;5007670;28;20984;-71
2021/04/20 10:13:34;;;;;;;23.07;18.70;;;19.90;99.90;;;;;;5017178;28;21230;-70
2021/04/20 10:16:25;;;;;;;22.07;17.40;;;19.10;99.90;;;;;;5017252;28;20428;-70
2021/04/20 10:19:38;;;;;;;21.20;17.27;;;19.00;99.90;;;;;;5013374;28;20480;-71
2021/04/20 10:22:28;;;;;;;21.13;17.53;;;19.10;99.90;;;;;;4975420;28;20474;-70
2021/04/20 10:25:12;;;;;;;21.07;16.73;;;19.70;99.90;;;;;;5011415;28;20434;-72
2021/04/20 10:27:37;;;;;;;17.60;15.13;;;20.20;99.90;;;;;;5016514;28;20955;-73
2021/04/20 10:30:12;;;;;;;15.73;13.97;;;20.20;99.90;;;;;;5021645;28;20436;-71
2021/04/20 10:32:49;;;;;;;16.20;13.47;;;20.40;99.90;;;;;;5019938;28;20212;-73
2021/04/20 10:35:21;;;;;;;22.63;14.20;;;20.10;99.90;;;;;;5020772;28;20432;-73
2021/04/20 10:37:54;;;;;;;15.70;13.60;;;20.10;99.90;;;;;;5023074;28;20447;-72
2021/04/20 10:40:30;;;;;;;22.93;15.70;;;20.20;99.90;;;;;;5018829;28;20529;-74
2021/04/20 10:42:56;;;;;;;15.97;14.33;;;20.10;99.90;;;;;;5019966;28;20487;-72
2021/04/20 10:45:27;;;;;;;15.70;13.47;;;20.50;99.90;;;;;;5023361;28;20512;-72
2021/04/20 10:47:54;;;;;;;13.60;12.20;;;20.70;99.90;;;;;;5021956;28;20477;-73
2021/04/20 10:50:28;;;;;;;14.40;12.33;;;20.90;99.90;;;;;;5023308;28;20425;-72
2021/04/20 10:53:00;;;;;;;15.67;13.53;;;20.50;99.90;;;;;;5026025;28;20866;-71
2021/04/20 10:55:28;;;;;;;16.13;13.07;;;20.20;99.90;;;;;;5024436;28;20931;-71
2021/04/20 10:57:55;;;;;;;17.03;13.30;;;19.30;99.90;;;;;;5023969;28;20951;-73
2021/04/20 11:00:22;;;;;;;16.97;12.80;;;19.00;99.90;;;;;;5021216;28;20929;-71
2021/04/20 11:02:51;;;;;;;16.60;13.97;;;18.50;99.90;;;;;;5022531;28;20806;-72
2021/04/20 11:05:21;;;;;;;14.77;12.87;;;18.10;99.90;;;;;;5023024;28;20434;-71
2021/04/20 11:07:48;;;;;;;16.87;14.67;;;17.70;99.90;;;;;;5025264;28;20441;-71
2021/04/20 11:10:15;;;;;;;18.50;15.80;;;17.50;99.90;;;;;;5021876;28;20421;-72
2021/04/20 11:12:48;;;;;;;19.63;15.20;;;17.30;99.90;;;;;;5024055;28;20850;-71
2021/04/20 11:15:28;;;;;;;15.67;12.40;;;17.00;99.90;;;;;;5014842;28;20954;-72
2021/04/20 11:17:54;;;;;;;17.70;13.03;;;16.80;99.90;;;;;;5021830;28;20444;-71
2021/04/20 11:20:47;;;;;;;13.70;12.23;;;16.60;99.90;;;;;;5021964;28;20597;-71
2021/04/20 11:23:21;;;;;;;15.70;13.20;;;16.60;99.90;;;;;;5017314;28;20194;-71
2021/04/20 11:25:50;;;;;;;17.57;13.00;;;17.10;99.90;;;;;;5018276;28;20424;-71
2021/04/20 11:28:31;;;;;;;24.57;13.30;;;17.70;99.90;;;;;;5017963;28;20445;-72
2021/04/20 11:31:02;;;;;;;20.40;12.00;;;18.20;99.90;;;;;;5021244;28;21003;-71
2021/04/20 11:33:53;;;;;;;16.73;14.37;;;18.60;99.90;;;;;;5022106;28;20417;-71
2021/04/20 11:36:27;;;;;;;16.93;11.47;;;18.80;99.90;;;;;;5019127;28;20417;-72
2021/04/20 11:38:57;;;;;;;17.03;12.00;;;18.80;99.90;;;;;;5022604;28;20498;-73
2021/04/20 11:41:35;;;;;;;20.27;14.00;;;18.90;99.90;;;;;;5020960;28;20429;-72
2021/04/20 11:44:04;;;;;;;18.37;14.57;;;18.90;99.90;;;;;;5021493;28;20453;-71
2021/04/20 11:46:33;;;;;;;17.70;13.80;;;18.80;99.90;;;;;;5020175;28;20429;-74
2021/04/20 11:49:13;;;;;;;16.73;11.87;;;18.80;99.90;;;;;;5023152;28;21076;-72
2021/04/20 11:51:41;;;;;;;14.60;11.33;;;18.80;99.90;;;;;;5018983;28;20460;-73
2021/04/20 11:54:09;;;;;;;16.87;14.17;;;19.10;99.90;;;;;;5021719;28;20513;-73
2021/04/20 11:56:40;;;;;;;16.37;13.40;;;19.20;99.90;;;;;;5023583;28;20525;-73
2021/04/20 11:59:06;;;;;;;15.30;12.00;;;19.00;99.90;;;;;;5015652;28;21014;-73
2021/04/20 12:01:34;;;;;;;16.13;12.77;;;18.80;99.90;;;;;;5020778;28;20484;-74
2021/04/20 12:04:06;;;;;;;14.50;12.37;;;18.50;99.90;;;;;;5021029;28;21018;-74
2021/04/20 12:06:48;;;;;;;14.37;12.80;;;18.40;99.90;;;;;;5021531;28;20418;-73
2021/04/20 12:09:22;;;;;;;15.33;11.67;;;18.40;99.90;;;;;;5017195;28;20969;-74
2021/04/20 12:11:48;;;;;;;17.57;11.70;;;18.90;99.90;;;;;;5016732;28;20465;-73
2021/04/20 12:14:20;;;;;;;13.30;10.73;;;19.10;99.90;;;;;;5014879;28;20460;-74
2021/04/20 12:16:48;;;;;;;13.57;10.93;;;18.90;99.90;;;;;;5016914;28;20988;-75
2021/04/20 12:19:17;;;;;;;15.20;11.23;;;18.40;99.90;;;;;;5017226;28;20480;-73
2021/04/20 12:21:48;;;;;;;13.27;10.97;;;18.20;99.90;;;;;;5013398;28;20508;-73
2021/04/20 12:24:21;;;;;;;11.47;9.70;;;18.00;99.90;;;;;;5017625;28;20425;-73
2021/04/20 12:26:56;;;;;;;11.53;10.13;;;18.00;99.90;;;;;;5017255;28;20439;-73
2021/04/20 12:29:30;;;;;;;9.60;8.60;;;18.20;99.90;;;;;;5018047;28;20477;-74
2021/04/20 12:31:55;;;;;;;11.10;8.77;;;17.80;99.90;;;;;;5023058;28;20468;-72
2021/04/20 12:34:31;;;;;;;11.53;9.83;;;17.40;99.90;;;;;;5014436;28;20428;-72
2021/04/20 12:37:03;;;;;;;17.20;10.77;;;17.40;99.90;;;;;;5022655;28;20213;-73
2021/04/20 12:39:35;;;;;;;11.97;9.60;;;17.10;99.90;;;;;;5018101;28;20456;-72
2021/04/20 12:42:05;;;;;;;11.73;9.40;;;17.10;99.90;;;;;;5013041;28;20430;-72
2021/04/20 12:44:52;;;;;;;10.43;9.23;;;17.20;99.90;;;;;;5022031;28;20436;-72
2021/04/20 12:47:18;;;;;;;10.83;8.97;;;17.50;99.90;;;;;;5016324;28;20433;-70
2021/04/20 12:49:49;;;;;;;16.20;10.30;;;17.80;99.90;;;;;;5020543;28;20521;-72
2021/04/20 12:52:18;;;;;;;12.87;9.93;;;17.70;99.90;;;;;;5014318;28;20696;-72
2021/04/20 12:54:46;;;;;;;11.07;9.80;;;17.70;99.90;;;;;;5020133;28;20507;-71